createdAt,value
2023-01-23T00:01:33.960Z,63.90
2023-01-23T00:04:01.508Z,63.51
2023-01-23T00:06:29.036Z,63.13
2023-01-23T00:08:57.091Z,62.31
2023-01-23T00:11:27.414Z,62.23
2023-01-23T00:13:54.880Z,62.12
2023-01-23T00:16:24.304Z,62.50
2023-01-23T00:18:52.502Z,61.93
2023-01-23T00:21:23.949Z,62.65
2023-01-23T00:23:53.437Z,62.76
2023-01-23T00:26:24.004Z,62.63
2023-01-23T00:28:51.842Z,62.73
2023-01-23T00:31:22.834Z,61.84
2023-01-23T00:33:55.205Z,61.78
2023-01-23T00:36:23.873Z,61.54
2023-01-23T00:38:51.142Z,60.82
2023-01-23T00:41:18.412Z,60.16
2023-01-23T00:43:47.226Z,60.56
2023-01-23T00:46:14.704Z,60.90
2023-01-23T00:48:41.936Z,61.10
2023-01-23T00:51:09.240Z,60.15
2023-01-23T00:53:36.522Z,61.01
2023-01-23T00:56:06.190Z,60.32
2023-01-23T00:58:33.859Z,60.60
2023-01-23T01:01:01.114Z,59.77
2023-01-23T01:03:28.404Z,59.94
2023-01-23T01:05:55.630Z,60.41
2023-01-23T01:08:22.796Z,58.70
2023-01-23T01:10:50.728Z,58.73
2023-01-23T01:13:21.592Z,59.71
2023-01-23T01:15:51.955Z,60.14
2023-01-23T01:18:20.779Z,60.78
2023-01-23T01:20:48.483Z,60.34
2023-01-23T01:23:16.431Z,60.03
2023-01-23T01:25:45.765Z,59.77
2023-01-23T01:28:16.411Z,60.58
2023-01-23T01:30:43.752Z,60.32
2023-01-23T01:33:11.621Z,61.34
2023-01-23T01:35:41.529Z,61.96
2023-01-23T01:38:09.458Z,62.28
2023-01-23T01:40:37.959Z,61.93
2023-01-23T01:43:09.061Z,62.87
2023-01-23T01:46:06.506Z,63.43
2023-01-23T01:48:33.559Z,62.76
2023-01-23T01:51:04.271Z,63.29
2023-01-23T01:53:33.714Z,63.55
2023-01-23T01:56:01.196Z,63.68
2023-01-23T01:58:29.303Z,63.42
2023-01-23T02:00:57.888Z,62.86
2023-01-23T02:03:26.550Z,63.26
2023-01-23T02:05:54.249Z,62.51
2023-01-23T02:08:40.044Z,63.12
2023-01-23T02:11:07.772Z,63.55
2023-01-23T02:13:37.234Z,64.33
2023-01-23T02:16:10.611Z,63.19
2023-01-23T02:18:45.004Z,63.75
2023-01-23T02:21:14.326Z,63.21
2023-01-23T02:23:44.297Z,63.53
2023-01-23T02:26:28.023Z,64.23
2023-01-23T02:28:56.350Z,62.81
2023-01-23T02:31:28.443Z,62.91
2023-01-23T02:33:59.473Z,63.94
2023-01-23T02:36:31.679Z,64.52
2023-01-23T02:39:06.549Z,65.03
2023-01-23T02:41:39.530Z,65.19
2023-01-23T02:44:14.977Z,66.33
2023-01-23T02:46:44.753Z,66.13
2023-01-23T02:49:11.932Z,66.47
2023-01-23T02:51:39.070Z,66.51
2023-01-23T02:54:07.678Z,66.00
2023-01-23T02:56:34.982Z,65.72
2023-01-23T02:59:20.724Z,64.92
2023-01-23T03:01:48.244Z,64.81
2023-01-23T03:04:15.608Z,65.25
2023-01-23T03:06:42.719Z,64.46
2023-01-23T03:09:13.686Z,64.46
2023-01-23T03:11:43.237Z,64.27
2023-01-23T03:14:21.346Z,63.57
2023-01-23T03:16:53.896Z,63.72
2023-01-23T03:19:26.835Z,64.02
2023-01-23T03:21:54.996Z,64.08
2023-01-23T03:24:23.196Z,63.36
2023-01-23T03:26:52.805Z,63.58
2023-01-23T03:29:43.955Z,64.73
2023-01-23T03:32:15.292Z,63.81
2023-01-23T03:34:44.446Z,64.95
2023-01-23T03:37:13.461Z,64.65
2023-01-23T03:40:01.887Z,64.34
2023-01-23T03:42:33.577Z,64.36
2023-01-23T03:45:02.844Z,65.27
2023-01-23T03:47:32.867Z,65.29
2023-01-23T03:50:00.110Z,65.56
2023-01-23T03:52:27.601Z,64.85
2023-01-23T03:54:56.893Z,65.75
2023-01-23T03:57:25.344Z,66.07
2023-01-23T04:00:09.433Z,66.14
2023-01-23T04:02:46.014Z,66.95
2023-01-23T04:05:14.976Z,67.24
2023-01-23T04:07:42.436Z,68.11
2023-01-23T04:10:12.791Z,68.73
2023-01-23T04:12:43.468Z,68.62
2023-01-23T04:15:11.667Z,68.53
2023-01-23T04:17:42.166Z,68.79
2023-01-23T04:20:11.184Z,68.50
2023-01-23T04:22:39.217Z,67.64
2023-01-23T04:25:07.622Z,67.12
2023-01-23T04:27:35.056Z,67.85
2023-01-23T04:30:03.749Z,67.58
2023-01-23T04:32:31.092Z,67.12
2023-01-23T04:34:58.735Z,68.26
2023-01-23T04:37:27.245Z,68.33
2023-01-23T04:39:56.143Z,69.15
2023-01-23T04:42:23.960Z,69.73
2023-01-23T04:45:09.511Z,70.44
2023-01-23T04:48:05.548Z,70.97
2023-01-23T04:50:35.147Z,70.79
2023-01-23T04:53:03.336Z,71.52
2023-01-23T04:55:36.485Z,71.56
2023-01-23T04:58:06.831Z,71.50
2023-01-23T05:00:34.159Z,71.39
2023-01-23T05:03:03.091Z,71.25
2023-01-23T05:05:31.463Z,71.58
2023-01-23T05:08:00.959Z,72.43
2023-01-23T05:10:29.463Z,71.97
2023-01-23T05:12:59.202Z,71.44
2023-01-23T05:15:26.694Z,70.99
2023-01-23T05:17:54.026Z,71.90
2023-01-23T05:20:24.099Z,72.15
2023-01-23T05:22:54.648Z,72.19
2023-01-23T05:25:30.363Z,72.92
2023-01-23T05:28:00.370Z,73.48
2023-01-23T05:30:27.762Z,72.77
2023-01-23T05:33:07.303Z,72.67
2023-01-23T05:35:34.416Z,71.91
2023-01-23T05:38:01.622Z,72.00
2023-01-23T05:40:29.053Z,72.23
2023-01-23T05:43:22.812Z,71.97
2023-01-23T05:46:04.861Z,72.07
2023-01-23T05:48:41.618Z,71.83
2023-01-23T05:51:11.421Z,72.08
2023-01-23T05:53:39.130Z,71.90
2023-01-23T05:56:08.079Z,72.64
2023-01-23T05:58:52.945Z,73.09
2023-01-23T06:01:28.003Z,72.61
2023-01-23T06:04:10.394Z,73.35
2023-01-23T06:06:48.474Z,72.99
2023-01-23T06:09:15.697Z,73.36
2023-01-23T06:11:42.863Z,73.55
2023-01-23T06:14:10.170Z,73.73
2023-01-23T06:16:37.316Z,74.28
2023-01-23T06:19:06.204Z,74.95
2023-01-23T06:21:36.432Z,75.04
2023-01-23T06:24:04.725Z,75.29
2023-01-23T06:26:32.034Z,75.19
2023-01-23T06:28:59.257Z,74.63
2023-01-23T06:31:26.653Z,74.47
2023-01-23T06:33:58.259Z,74.39
2023-01-23T06:36:31.815Z,73.95
2023-01-23T06:38:59.403Z,73.91
2023-01-23T06:41:33.754Z,73.96
2023-01-23T06:44:06.303Z,73.43
2023-01-23T06:46:34.310Z,73.24
2023-01-23T06:49:06.140Z,73.48
2023-01-23T06:51:42.643Z,72.68
2023-01-23T06:54:13.122Z,72.46
2023-01-23T06:56:40.514Z,72.74
2023-01-23T06:59:10.861Z,72.15
2023-01-23T07:01:38.617Z,71.90
2023-01-23T07:04:20.288Z,72.97
2023-01-23T07:06:52.705Z,72.09
2023-01-23T07:09:21.032Z,72.22
2023-01-23T07:12:00.782Z,71.74
2023-01-23T07:14:30.169Z,71.14
2023-01-23T07:16:58.616Z,69.93
2023-01-23T07:19:26.992Z,70.34
2023-01-23T07:21:56.545Z,69.53
2023-01-23T07:24:24.178Z,69.99
2023-01-23T07:26:52.612Z,68.97
2023-01-23T07:29:19.907Z,67.89
2023-01-23T07:31:47.227Z,67.56
2023-01-23T07:34:15.514Z,67.12
2023-01-23T07:36:42.969Z,68.27
2023-01-23T07:39:10.097Z,66.77
2023-01-23T07:41:38.843Z,67.42
2023-01-23T07:44:08.434Z,68.68
2023-01-23T07:46:35.964Z,68.13
2023-01-23T07:49:03.231Z,67.70
2023-01-23T07:51:30.451Z,67.49
2023-01-23T07:53:57.703Z,67.92
2023-01-23T07:56:24.997Z,67.45
2023-01-23T07:58:52.643Z,68.65
2023-01-23T08:01:20.293Z,67.70
2023-01-23T08:03:48.045Z,67.58
2023-01-23T08:06:15.586Z,68.28
2023-01-23T08:08:43.085Z,67.99
2023-01-23T08:11:11.961Z,66.96
2023-01-23T08:13:40.250Z,66.58
2023-01-23T08:16:08.516Z,66.70
2023-01-23T08:18:37.037Z,66.57
2023-01-23T08:21:04.242Z,67.25
2023-01-23T08:23:33.137Z,67.27
2023-01-23T08:26:03.851Z,66.64
2023-01-23T08:28:31.528Z,67.38
2023-01-23T08:31:07.678Z,67.35
2023-01-23T08:33:37.560Z,66.78
2023-01-23T08:36:06.831Z,67.15
2023-01-23T08:38:34.257Z,66.88
2023-01-23T08:41:03.446Z,67.49
2023-01-23T08:43:32.111Z,67.63
2023-01-23T08:46:00.533Z,67.33
2023-01-23T08:48:28.903Z,67.27
2023-01-23T08:51:10.484Z,67.86
2023-01-23T08:53:38.492Z,68.04
2023-01-23T08:56:16.663Z,68.04
2023-01-23T08:58:46.676Z,68.56
2023-01-23T09:01:16.318Z,68.92
2023-01-23T09:03:43.928Z,68.15
2023-01-23T09:06:17.209Z,67.45
2023-01-23T09:08:45.189Z,66.89
2023-01-23T09:11:13.424Z,67.61
2023-01-23T09:13:40.819Z,67.87
2023-01-23T09:16:10.484Z,68.03
2023-01-23T09:18:37.976Z,67.25
2023-01-23T09:21:11.441Z,66.62
2023-01-23T09:23:38.935Z,66.81
2023-01-23T09:26:09.092Z,67.22
2023-01-23T09:28:37.229Z,66.70
2023-01-23T09:31:07.677Z,67.24
2023-01-23T09:33:35.421Z,66.75
2023-01-23T09:36:03.323Z,66.13
2023-01-23T09:38:33.506Z,66.28
2023-01-23T09:41:09.252Z,66.54
2023-01-23T09:43:53.254Z,66.07
2023-01-23T09:46:36.052Z,66.04
2023-01-23T09:49:18.880Z,64.65
2023-01-23T09:51:56.782Z,65.45
2023-01-23T09:54:37.675Z,63.07
2023-01-23T09:57:21.283Z,63.41
2023-01-23T10:00:00.069Z,63.08
2023-01-23T10:02:31.223Z,62.48
2023-01-23T10:05:03.080Z,62.77
2023-01-23T10:07:49.985Z,62.16
2023-01-23T10:10:38.931Z,62.37
2023-01-23T10:13:16.418Z,62.32
2023-01-23T10:16:09.284Z,63.06
2023-01-23T10:18:44.039Z,62.71
2023-01-23T10:21:39.456Z,61.14
2023-01-23T10:24:40.403Z,62.42
2023-01-23T10:27:21.093Z,62.71
2023-01-23T10:30:28.918Z,63.04
2023-01-23T10:33:02.440Z,61.96
2023-01-23T10:35:44.885Z,61.60
2023-01-23T10:38:48.599Z,60.31
2023-01-23T10:41:23.331Z,60.93
2023-01-23T10:43:53.248Z,60.05
2023-01-23T10:46:42.330Z,60.74
2023-01-23T10:49:09.557Z,61.09
2023-01-23T10:51:39.870Z,61.16
2023-01-23T10:54:31.903Z,61.07
2023-01-23T10:57:19.007Z,61.11
2023-01-23T10:59:55.750Z,60.41
2023-01-23T11:02:34.918Z,61.00
2023-01-23T11:05:24.119Z,61.12
2023-01-23T11:07:55.544Z,61.42
2023-01-23T11:10:23.794Z,61.00
2023-01-23T11:12:55.960Z,61.23
2023-01-23T11:15:35.124Z,60.74
2023-01-23T11:18:02.452Z,61.02
2023-01-23T11:20:38.023Z,60.42
2023-01-23T11:23:18.479Z,59.77
2023-01-23T11:25:50.816Z,60.13
2023-01-23T11:28:25.064Z,60.20
2023-01-23T11:31:15.927Z,60.65
2023-01-23T11:34:16.365Z,59.58
2023-01-23T11:36:55.043Z,59.42
2023-01-23T11:39:41.510Z,60.12
2023-01-23T11:42:13.192Z,59.84
2023-01-23T11:44:46.445Z,59.06
2023-01-23T11:47:29.338Z,58.15
2023-01-23T11:50:20.580Z,59.28
2023-01-23T11:53:05.754Z,59.41
2023-01-23T11:56:07.707Z,60.04
2023-01-23T11:59:01.375Z,58.96
2023-01-23T12:01:32.359Z,59.21
2023-01-23T12:04:21.192Z,59.76
2023-01-23T12:06:59.880Z,59.80
2023-01-23T12:09:55.768Z,60.29
2023-01-23T12:12:41.533Z,60.54
2023-01-23T12:15:39.864Z,60.68
2023-01-23T12:18:40.460Z,61.06
2023-01-23T12:21:26.288Z,61.90
2023-01-23T12:24:12.265Z,61.20
2023-01-23T12:27:05.828Z,61.66
2023-01-23T12:29:57.406Z,62.46
2023-01-23T12:32:52.721Z,62.84
2023-01-23T12:35:47.634Z,63.09
2023-01-23T12:38:56.819Z,62.64
2023-01-23T12:41:41.516Z,62.37
2023-01-23T12:44:17.113Z,63.12
2023-01-23T12:46:53.647Z,62.22
2023-01-23T12:49:55.394Z,63.29
2023-01-23T12:52:48.172Z,62.59
2023-01-23T12:55:23.233Z,62.19
2023-01-23T12:58:07.121Z,61.72
2023-01-23T13:00:38.914Z,62.32
2023-01-23T13:03:27.322Z,62.09
2023-01-23T13:05:59.260Z,62.95
2023-01-23T13:08:40.509Z,62.12
2023-01-23T13:11:42.474Z,62.44
2023-01-23T13:14:17.851Z,61.98
2023-01-23T13:16:52.033Z,62.52
2023-01-23T13:19:47.329Z,62.37
2023-01-23T13:22:29.131Z,62.38
2023-01-23T13:25:13.155Z,62.21
2023-01-23T13:27:47.428Z,61.80
2023-01-23T13:30:27.210Z,61.75
2023-01-23T13:33:01.897Z,61.46
2023-01-23T13:35:44.934Z,61.84
2023-01-23T13:38:30.517Z,61.78
2023-01-23T13:41:04.930Z,61.48
2023-01-23T13:43:50.562Z,60.76
2023-01-23T14:22:01.323Z,64.58
2023-01-23T14:24:43.633Z,64.39
2023-01-23T14:27:29.514Z,64.34
2023-01-23T14:30:12.525Z,65.09
2023-01-23T14:32:39.771Z,64.51
2023-01-23T14:35:23.698Z,64.22
2023-01-23T14:37:52.485Z,64.67
2023-01-23T14:40:27.760Z,64.49
2023-01-23T14:43:04.837Z,64.01
2023-01-23T14:45:33.883Z,64.17
2023-01-23T14:48:06.873Z,63.52
2023-01-23T14:50:35.228Z,63.89
2023-01-23T14:53:04.312Z,63.86
2023-01-23T14:55:35.086Z,64.39
2023-01-23T14:58:05.201Z,64.81
2023-01-23T15:00:34.101Z,64.15
2023-01-23T15:03:01.523Z,64.41
2023-01-23T15:05:29.046Z,64.66
2023-01-23T15:07:58.458Z,64.12
2023-01-23T15:10:32.743Z,64.61
2023-01-23T15:13:11.706Z,63.49
2023-01-23T15:15:44.999Z,63.49
2023-01-23T15:18:21.607Z,63.04
2023-01-23T15:20:57.357Z,63.18
2023-01-23T15:23:34.312Z,63.28
2023-01-23T15:26:19.739Z,63.00
2023-01-23T15:29:10.714Z,62.63
2023-01-23T15:31:40.857Z,62.32
2023-01-23T15:34:20.463Z,62.38
2023-01-23T15:36:51.386Z,62.52
2023-01-23T15:39:53.900Z,62.72
2023-01-23T15:42:32.772Z,62.39
2023-01-23T15:45:03.937Z,62.89
2023-01-23T15:47:35.197Z,63.53
2023-01-23T15:50:03.347Z,63.20
2023-01-23T15:52:46.496Z,63.22
2023-01-23T15:55:15.017Z,62.96
2023-01-23T15:57:43.383Z,63.03
2023-01-23T16:00:22.077Z,62.93
2023-01-23T16:02:56.386Z,62.95
2023-01-23T16:05:26.856Z,62.08
2023-01-23T16:07:55.353Z,63.35
2023-01-23T16:10:33.996Z,63.77
2023-01-23T16:13:01.303Z,63.59
2023-01-23T16:15:35.677Z,64.06
2023-01-23T16:18:04.791Z,63.62
2023-01-23T16:20:41.432Z,64.08
2023-01-23T16:23:25.303Z,64.61
2023-01-23T16:25:53.580Z,64.68
2023-01-23T16:28:27.084Z,64.86
2023-01-23T16:30:54.451Z,65.01
2023-01-23T16:33:23.990Z,64.77
2023-01-23T16:35:51.928Z,64.95
2023-01-23T16:38:24.493Z,64.63
2023-01-23T16:40:54.217Z,64.58
2023-01-23T16:43:22.766Z,64.16
2023-01-23T16:45:54.319Z,64.43
2023-01-23T16:48:27.898Z,64.89
2023-01-23T16:51:05.629Z,64.56
2023-01-23T16:53:42.836Z,65.12
2023-01-23T16:56:20.851Z,64.96
2023-01-23T16:58:49.962Z,65.12
2023-01-23T17:01:21.169Z,64.96
2023-01-23T17:03:57.442Z,65.07
2023-01-23T17:06:24.327Z,64.38
2023-01-23T17:08:53.687Z,65.02
2023-01-23T17:11:25.544Z,65.37
2023-01-23T17:13:57.503Z,65.32
2023-01-23T17:16:27.649Z,65.38
2023-01-23T17:18:59.122Z,65.67
2023-01-23T17:21:32.940Z,65.52
2023-01-23T17:24:00.536Z,65.36
2023-01-23T17:26:27.780Z,65.06
2023-01-23T17:28:55.131Z,64.99
2023-01-23T17:31:26.161Z,64.58
2023-01-23T17:33:54.034Z,64.35
2023-01-23T17:36:21.617Z,64.40
2023-01-23T17:38:49.414Z,64.21
2023-01-23T17:41:17.742Z,64.17
2023-01-23T17:43:45.492Z,64.21
2023-01-23T17:46:22.719Z,64.31
2023-01-23T17:48:50.050Z,64.12
2023-01-23T17:51:19.443Z,63.83
2023-01-23T17:53:46.982Z,63.91
2023-01-23T17:56:14.407Z,63.79
2023-01-23T17:58:41.666Z,63.49
2023-01-23T18:01:27.065Z,64.15
2023-01-23T18:03:54.417Z,63.32
2023-01-23T18:06:21.526Z,63.55
2023-01-23T18:08:48.853Z,64.29
2023-01-23T18:11:25.586Z,64.03
2023-01-23T18:14:41.673Z,63.92
2023-01-23T18:17:53.811Z,63.39
2023-01-23T18:20:23.536Z,63.25
2023-01-23T18:22:50.954Z,63.31
2023-01-23T18:25:20.313Z,62.91
2023-01-23T18:27:53.090Z,62.41
2023-01-23T18:30:34.755Z,62.68
2023-01-23T18:33:31.839Z,62.99
2023-01-23T18:36:18.916Z,62.19
2023-01-23T18:38:46.139Z,61.92
2023-01-23T18:41:25.023Z,61.85
2023-01-23T18:44:04.126Z,61.78
2023-01-23T18:46:31.935Z,61.74
2023-01-23T18:48:59.770Z,62.12
2023-01-23T18:52:11.592Z,61.60
2023-01-23T18:55:34.654Z,61.30
2023-01-23T18:58:30.816Z,61.17
2023-01-23T19:01:25.620Z,61.53
2023-01-23T19:03:55.535Z,61.63
2023-01-23T19:06:24.888Z,61.47
2023-01-23T19:08:54.319Z,61.42
2023-01-23T19:11:43.136Z,61.41
2023-01-23T19:14:30.051Z,60.70
2023-01-23T19:17:31.507Z,60.19
2023-01-23T19:20:29.171Z,60.79
2023-01-23T19:23:11.736Z,60.30
2023-01-23T19:25:38.957Z,60.77
2023-01-23T19:28:07.472Z,60.36
2023-01-23T19:30:37.124Z,60.14
2023-01-23T19:33:04.606Z,60.28
2023-01-23T19:35:32.644Z,59.75
2023-01-23T19:38:00.737Z,59.40
2023-01-23T19:40:28.021Z,59.71
2023-01-23T19:43:13.287Z,58.92
2023-01-23T19:45:42.111Z,59.24
2023-01-23T19:48:09.354Z,58.92
2023-01-23T19:50:37.676Z,59.02
2023-01-23T19:53:05.268Z,58.97
2023-01-23T19:55:35.146Z,59.38
2023-01-23T19:58:02.583Z,59.21
2023-01-23T20:00:33.161Z,59.21
2023-01-23T20:03:00.543Z,59.34
2023-01-23T20:05:27.708Z,58.74
2023-01-23T20:07:54.810Z,57.84
2023-01-23T20:10:22.823Z,58.21
2023-01-23T20:12:56.782Z,58.20
2023-01-23T20:15:26.427Z,58.01
2023-01-23T20:17:53.936Z,57.61
2023-01-23T20:20:21.377Z,58.40
2023-01-23T20:22:48.875Z,58.08
2023-01-23T20:25:17.288Z,57.85
2023-01-23T20:27:45.072Z,58.47
2023-01-23T20:30:18.954Z,58.22
2023-01-23T20:32:47.612Z,57.73
2023-01-23T20:35:14.977Z,57.92
2023-01-23T20:37:42.088Z,57.44
2023-01-23T20:40:11.779Z,57.29
2023-01-23T20:42:40.917Z,57.43
2023-01-23T20:45:08.584Z,56.98
2023-01-23T20:47:36.975Z,56.96
2023-01-23T20:50:04.912Z,57.08
2023-01-23T20:52:52.186Z,57.29
2023-01-23T20:55:19.480Z,56.24
2023-01-23T20:58:05.192Z,56.28
2023-01-23T21:00:32.642Z,56.99
2023-01-23T21:03:00.188Z,56.46
2023-01-23T21:05:27.450Z,56.20
2023-01-23T21:07:54.574Z,56.39
2023-01-23T21:10:21.879Z,56.71
2023-01-23T21:12:48.924Z,55.76
2023-01-23T21:15:16.302Z,56.52
2023-01-23T21:17:44.675Z,56.05
2023-01-23T21:20:12.234Z,55.39
2023-01-23T21:22:39.404Z,55.46
2023-01-23T21:25:07.136Z,55.60
2023-01-23T21:27:34.170Z,55.71
2023-01-23T21:30:01.644Z,56.30
2023-01-23T21:32:30.637Z,56.13
2023-01-23T21:34:57.719Z,56.58
2023-01-23T21:37:25.116Z,56.08
2023-01-23T21:39:52.284Z,55.99
2023-01-23T21:42:19.602Z,56.22
2023-01-23T21:44:46.776Z,56.38
2023-01-23T21:47:14.157Z,56.21
2023-01-23T21:49:41.848Z,56.11
2023-01-23T21:52:08.988Z,56.17
2023-01-23T21:54:36.226Z,56.66
2023-01-23T21:57:03.567Z,56.35
2023-01-23T21:59:30.835Z,56.06
2023-01-23T22:02:00.551Z,55.82
2023-01-23T22:04:27.773Z,56.04
2023-01-23T22:06:58.801Z,55.23
2023-01-23T22:09:26.969Z,55.79
2023-01-23T22:11:55.764Z,55.83
2023-01-23T22:14:23.080Z,56.14
2023-01-23T22:16:51.678Z,56.05
2023-01-23T22:19:25.020Z,55.38
2023-01-23T22:21:57.396Z,56.08
2023-01-23T22:24:24.508Z,56.10
2023-01-23T22:26:52.645Z,56.37
2023-01-23T22:29:19.962Z,56.59
2023-01-23T22:31:47.523Z,56.87
2023-01-23T22:34:15.014Z,57.23
2023-01-23T22:36:42.587Z,57.50
2023-01-23T22:39:14.335Z,56.84
2023-01-23T22:41:42.009Z,56.70
2023-01-23T22:44:09.020Z,56.89
2023-01-23T22:46:36.431Z,57.15
2023-01-23T22:49:03.920Z,57.33
2023-01-23T22:51:31.497Z,57.50
2023-01-23T22:53:59.547Z,57.15
2023-01-23T22:56:28.091Z,57.29
2023-01-23T22:58:56.612Z,57.32
2023-01-23T23:01:24.483Z,57.89
2023-01-23T23:03:53.638Z,57.81
2023-01-23T23:06:21.031Z,57.46
2023-01-23T23:08:49.181Z,57.35
2023-01-23T23:11:19.375Z,57.09
2023-01-23T23:13:46.897Z,57.04
2023-01-23T23:16:22.625Z,56.71
2023-01-23T23:18:51.688Z,57.21
2023-01-23T23:21:22.039Z,56.71
2023-01-23T23:23:49.389Z,56.85
2023-01-23T23:26:16.994Z,56.40
2023-01-23T23:28:44.495Z,56.65
2023-01-23T23:31:11.865Z,55.63
2023-01-23T23:33:39.527Z,55.45
2023-01-23T23:36:07.055Z,55.68
2023-01-23T23:38:34.587Z,55.30
2023-01-23T23:41:05.472Z,55.12
2023-01-23T23:43:33.229Z,54.43
2023-01-23T23:46:02.359Z,54.19
2023-01-23T23:48:31.728Z,55.02
2023-01-23T23:51:05.923Z,54.68
2023-01-23T23:53:34.287Z,55.15
2023-01-23T23:56:01.743Z,54.51
2023-01-23T23:58:28.843Z,55.08
